createdAt,value
2022-08-23T00:00:10.979Z,24.40
2022-08-23T00:02:43.547Z,24.50
2022-08-23T00:05:12.460Z,24.50
2022-08-23T00:07:41.844Z,24.40
2022-08-23T00:10:11.692Z,24.50
2022-08-23T00:12:40.484Z,24.50
2022-08-23T00:15:10.568Z,24.50
2022-08-23T00:17:39.119Z,24.50
2022-08-23T00:20:12.076Z,24.40
2022-08-23T00:22:40.848Z,24.40
2022-08-23T00:25:11.594Z,24.50
2022-08-23T00:27:40.233Z,24.60
2022-08-23T00:30:12.317Z,24.70
2022-08-23T00:32:41.342Z,24.70
2022-08-23T00:35:12.489Z,24.60
2022-08-23T00:37:50.673Z,24.60
2022-08-23T00:40:37.155Z,24.80
2022-08-23T00:43:27.048Z,24.80
2022-08-23T00:46:21.763Z,24.80
2022-08-23T00:48:49.754Z,24.80
2022-08-23T00:51:23.692Z,24.50
2022-08-23T00:53:55.466Z,24.70
2022-08-23T00:56:26.413Z,24.50
2022-08-23T00:58:58.181Z,24.60
2022-08-23T01:01:26.702Z,24.40
2022-08-23T01:04:00.800Z,24.50
2022-08-23T01:06:39.047Z,24.30
2022-08-23T01:09:10.234Z,24.40
2022-08-23T01:11:43.682Z,24.20
2022-08-23T01:14:14.483Z,24.40
2022-08-23T01:16:47.457Z,24.30
2022-08-23T01:19:23.427Z,24.20
2022-08-23T01:22:00.860Z,24.10
2022-08-23T01:24:56.164Z,24.00
2022-08-23T01:27:18.751Z,23.90
2022-08-23T01:29:47.211Z,23.90
2022-08-23T01:32:15.133Z,23.80
2022-08-23T01:34:45.868Z,23.70
2022-08-23T01:37:21.675Z,23.80
2022-08-23T01:39:51.070Z,23.80
2022-08-23T01:42:18.907Z,23.80
2022-08-23T01:44:46.720Z,23.80
2022-08-23T01:47:14.781Z,23.80
2022-08-23T01:49:42.626Z,23.80
2022-08-23T01:52:10.459Z,23.80
2022-08-23T01:54:38.246Z,23.70
2022-08-23T01:57:08.449Z,23.80
2022-08-23T01:59:36.318Z,23.80
2022-08-23T02:02:04.710Z,23.70
2022-08-23T02:04:32.569Z,23.70
2022-08-23T02:07:00.568Z,23.70
2022-08-23T02:09:28.396Z,23.70
2022-08-23T02:11:56.194Z,23.60
2022-08-23T02:14:26.225Z,23.80
2022-08-23T02:17:03.045Z,23.80
2022-08-23T02:19:33.150Z,23.80
2022-08-23T02:22:01.133Z,23.70
2022-08-23T02:24:31.245Z,23.70
2022-08-23T02:27:01.939Z,23.70
2022-08-23T02:29:31.390Z,23.70
2022-08-23T02:32:00.018Z,23.70
2022-08-23T02:34:29.681Z,23.70
2022-08-23T02:36:57.797Z,23.70
2022-08-23T02:39:26.174Z,23.70
2022-08-23T02:41:54.281Z,23.60
2022-08-23T02:44:22.119Z,23.50
2022-08-23T02:46:51.719Z,23.30
2022-08-23T02:49:21.272Z,23.20
2022-08-23T02:51:49.194Z,23.10
2022-08-23T02:54:16.986Z,23.00
2022-08-23T02:56:44.879Z,22.90
2022-08-23T02:59:13.412Z,22.80
2022-08-23T03:01:45.387Z,22.80
2022-08-23T03:04:14.559Z,22.70
2022-08-23T03:06:42.546Z,22.70
2022-08-23T03:09:11.250Z,22.70
2022-08-23T03:11:39.895Z,22.60
2022-08-23T03:14:07.664Z,22.60
2022-08-23T03:16:35.793Z,22.40
2022-08-23T03:19:03.636Z,22.50
2022-08-23T03:21:32.871Z,22.50
2022-08-23T03:24:00.749Z,22.40
2022-08-23T03:26:28.601Z,22.50
2022-08-23T03:28:56.752Z,22.40
2022-08-23T03:31:25.345Z,22.30
2022-08-23T03:33:57.152Z,22.20
2022-08-23T03:36:28.112Z,22.10
2022-08-23T03:38:57.556Z,22.00
2022-08-23T03:41:26.179Z,22.00
2022-08-23T03:43:54.237Z,21.90
2022-08-23T03:46:23.964Z,21.90
2022-08-23T03:48:52.728Z,21.80
2022-08-23T03:51:21.261Z,21.80
2022-08-23T03:53:49.637Z,21.80
2022-08-23T03:56:28.000Z,21.80
2022-08-23T03:58:56.919Z,21.80
2022-08-23T04:01:28.561Z,21.70
2022-08-23T04:03:59.261Z,21.60
2022-08-23T04:06:27.633Z,21.60
2022-08-23T04:08:55.806Z,21.60
2022-08-23T04:11:25.579Z,21.50
2022-08-23T04:13:53.491Z,21.60
2022-08-23T04:16:21.569Z,21.50
2022-08-23T04:18:49.829Z,21.40
2022-08-23T04:21:22.269Z,21.40
2022-08-23T04:23:50.291Z,21.40
2022-08-23T04:26:18.259Z,21.40
2022-08-23T04:28:47.441Z,21.40
2022-08-23T04:31:15.809Z,21.30
2022-08-23T04:33:45.898Z,21.20
2022-08-23T04:36:20.603Z,21.20
2022-08-23T04:38:51.249Z,21.10
2022-08-23T04:41:51.757Z,21.10
2022-08-23T04:44:21.278Z,21.00
2022-08-23T04:46:49.639Z,21.00
2022-08-23T04:49:18.041Z,21.00
2022-08-23T04:51:53.831Z,21.00
2022-08-23T04:54:22.579Z,21.00
2022-08-23T04:56:51.645Z,20.90
2022-08-23T04:59:21.964Z,20.90
2022-08-23T05:01:50.313Z,20.80
2022-08-23T05:04:18.352Z,20.90
2022-08-23T05:06:46.421Z,21.00
2022-08-23T05:09:19.821Z,21.00
2022-08-23T05:11:49.185Z,21.10
2022-08-23T05:14:17.114Z,21.20
2022-08-23T05:16:46.294Z,21.40
2022-08-23T05:19:14.145Z,21.40
2022-08-23T05:21:42.097Z,21.30
2022-08-23T05:24:13.557Z,21.40
2022-08-23T05:26:41.859Z,21.50
2022-08-23T05:29:10.148Z,21.70
2022-08-23T05:31:37.977Z,21.60
2022-08-23T05:34:07.241Z,21.60
2022-08-23T05:36:35.363Z,21.60
2022-08-23T05:39:03.245Z,21.70
2022-08-23T05:41:38.295Z,21.80
2022-08-23T05:44:06.512Z,21.80
2022-08-23T05:46:35.690Z,21.70
2022-08-23T05:49:03.615Z,21.90
2022-08-23T05:51:35.497Z,21.90
2022-08-23T05:54:05.769Z,22.10
2022-08-23T05:56:35.379Z,22.30
2022-08-23T05:59:06.572Z,22.20
2022-08-23T06:01:41.017Z,22.40
2022-08-23T06:04:11.967Z,22.40
2022-08-23T06:06:43.401Z,22.40
2022-08-23T06:09:14.335Z,22.60
2022-08-23T06:11:43.938Z,22.70
2022-08-23T06:14:12.380Z,22.80
2022-08-23T06:16:42.634Z,22.90
2022-08-23T06:19:10.889Z,22.90
2022-08-23T06:21:39.606Z,22.90
2022-08-23T06:24:09.012Z,23.00
2022-08-23T06:26:39.045Z,23.10
2022-08-23T06:29:10.097Z,23.20
2022-08-23T06:31:48.860Z,23.30
2022-08-23T06:34:20.771Z,23.40
2022-08-23T06:36:50.206Z,23.40
2022-08-23T06:39:20.976Z,23.40
2022-08-23T06:41:49.741Z,23.50
2022-08-23T06:44:18.423Z,23.60
2022-08-23T06:46:48.005Z,23.70
2022-08-23T06:49:16.159Z,23.60
2022-08-23T06:51:46.182Z,23.80
2022-08-23T06:54:15.851Z,24.00
2022-08-23T06:56:45.421Z,24.00
2022-08-23T06:59:13.546Z,24.20
2022-08-23T07:01:46.069Z,24.30
2022-08-23T07:04:16.756Z,24.30
2022-08-23T07:06:44.728Z,24.50
2022-08-23T07:09:14.740Z,24.50
2022-08-23T07:11:43.348Z,24.60
2022-08-23T07:14:14.545Z,24.70
2022-08-23T07:16:45.821Z,24.90
2022-08-23T07:19:13.708Z,25.10
2022-08-23T07:21:41.791Z,25.10
2022-08-23T07:24:10.171Z,25.30
2022-08-23T07:26:39.227Z,25.40
2022-08-23T07:29:08.336Z,25.80
2022-08-23T07:31:44.119Z,25.80
2022-08-23T07:34:12.442Z,25.90
2022-08-23T07:36:42.483Z,26.00
2022-08-23T07:39:11.823Z,26.20
2022-08-23T07:41:40.488Z,26.20
2022-08-23T07:44:10.927Z,26.40
2022-08-23T07:46:44.711Z,26.60
2022-08-23T07:49:15.972Z,26.90
2022-08-23T07:51:47.171Z,26.90
2022-08-23T07:54:15.422Z,26.90
2022-08-23T07:56:43.853Z,27.00
2022-08-23T07:59:12.161Z,27.10
2022-08-23T08:01:44.159Z,27.00
2022-08-23T08:04:12.731Z,27.20
2022-08-23T08:07:17.675Z,27.30
2022-08-23T08:09:45.829Z,27.40
2022-08-23T08:12:17.484Z,27.20
2022-08-23T08:14:45.489Z,27.50
2022-08-23T08:17:18.246Z,27.50
2022-08-23T08:19:46.737Z,27.60
2022-08-23T08:22:14.630Z,27.70
2022-08-23T08:24:42.638Z,27.60
2022-08-23T08:27:12.497Z,27.70
2022-08-23T08:29:48.043Z,27.70
2022-08-23T08:32:23.506Z,27.30
2022-08-23T08:34:51.450Z,27.40
2022-08-23T08:37:19.364Z,27.80
2022-08-23T08:39:47.359Z,28.20
2022-08-23T08:42:34.631Z,28.10
2022-08-23T08:45:10.422Z,28.30
2022-08-23T08:47:44.769Z,28.20
2022-08-23T08:50:19.687Z,28.50
2022-08-23T08:52:51.980Z,28.40
2022-08-23T08:55:24.716Z,28.70
2022-08-23T08:57:55.080Z,28.70
2022-08-23T09:00:25.782Z,28.80
2022-08-23T09:02:55.815Z,28.80
2022-08-23T09:05:27.630Z,29.10
2022-08-23T09:08:09.007Z,29.30
2022-08-23T09:10:54.326Z,29.10
2022-08-23T09:13:47.857Z,29.30
2022-08-23T09:16:39.536Z,29.40
2022-08-23T09:19:08.918Z,29.50
2022-08-23T09:21:44.972Z,29.60
2022-08-23T09:24:13.386Z,29.60
2022-08-23T09:26:43.586Z,29.60
2022-08-23T09:29:21.148Z,29.40
2022-08-23T09:31:52.629Z,29.50
2022-08-23T09:34:38.123Z,29.40
2022-08-23T09:37:16.901Z,29.60
2022-08-23T09:39:47.528Z,29.80
2022-08-23T09:42:29.564Z,29.80
2022-08-23T09:44:58.111Z,29.80
2022-08-23T09:47:33.149Z,29.90
2022-08-23T09:50:17.272Z,29.90
2022-08-23T09:52:50.222Z,29.90
2022-08-23T09:55:34.812Z,29.90
2022-08-23T09:58:04.939Z,29.90
2022-08-23T10:00:35.662Z,29.70
2022-08-23T10:03:28.829Z,29.90
2022-08-23T10:06:00.765Z,29.60
2022-08-23T10:08:31.718Z,30.00
2022-08-23T10:11:06.094Z,30.10
2022-08-23T10:13:36.709Z,30.30
2022-08-23T10:16:17.929Z,30.30
2022-08-23T10:18:55.885Z,30.20
2022-08-23T10:21:32.024Z,30.30
2022-08-23T10:24:15.683Z,30.30
2022-08-23T10:26:52.274Z,29.90
2022-08-23T10:29:45.264Z,29.90
2022-08-23T10:32:27.595Z,30.10
2022-08-23T10:35:22.750Z,30.20
2022-08-23T10:38:37.904Z,30.20
2022-08-23T10:41:52.948Z,30.10
2022-08-23T10:44:25.978Z,30.20
2022-08-23T10:47:03.495Z,30.50
2022-08-23T10:49:32.539Z,30.20
2022-08-23T10:52:06.234Z,30.20
2022-08-23T10:54:59.706Z,30.60
2022-08-23T10:57:34.336Z,30.70
2022-08-23T11:00:19.902Z,30.80
2022-08-23T11:02:55.628Z,30.80
2022-08-23T11:05:26.699Z,30.80
2022-08-23T11:08:01.216Z,30.70
2022-08-23T11:10:55.867Z,30.80
2022-08-23T11:13:28.089Z,30.90
2022-08-23T11:16:07.126Z,30.90
2022-08-23T11:18:48.323Z,31.10
2022-08-23T11:21:48.411Z,31.10
2022-08-23T11:24:50.392Z,31.00
2022-08-23T11:27:39.996Z,30.90
2022-08-23T11:30:54.221Z,31.10
2022-08-23T11:33:25.712Z,31.10
2022-08-23T11:35:55.455Z,31.30
2022-08-23T11:39:01.711Z,31.20
2022-08-23T11:41:31.778Z,31.20
2022-08-23T11:44:27.760Z,31.10
2022-08-23T11:47:07.539Z,31.50
2022-08-23T11:50:01.230Z,31.80
2022-08-23T11:52:56.232Z,31.70
2022-08-23T11:55:47.826Z,31.90
2022-08-23T11:58:23.740Z,31.80
2022-08-23T12:01:13.610Z,31.80
2022-08-23T12:03:56.564Z,32.00
2022-08-23T12:06:41.457Z,32.10
2022-08-23T12:09:25.931Z,32.00
2022-08-23T12:12:34.802Z,31.80
2022-08-23T12:15:18.205Z,31.70
2022-08-23T12:18:08.419Z,31.90
2022-08-23T12:20:49.229Z,31.80
2022-08-23T12:23:24.388Z,32.00
2022-08-23T12:26:08.621Z,32.10
2022-08-23T12:28:46.783Z,32.30
2022-08-23T12:31:44.602Z,32.10
2022-08-23T12:34:44.117Z,32.20
2022-08-23T12:37:33.324Z,32.20
2022-08-23T12:40:05.025Z,32.00
2022-08-23T12:42:47.863Z,32.20
2022-08-23T12:46:06.858Z,32.20
2022-08-23T12:48:49.439Z,32.50
2022-08-23T12:51:18.846Z,32.40
2022-08-23T12:53:48.121Z,32.60
2022-08-23T12:56:33.841Z,32.70
2022-08-23T12:59:11.955Z,32.20
2022-08-23T13:01:42.048Z,32.30
2022-08-23T13:04:17.550Z,32.60
2022-08-23T13:07:17.760Z,32.50
2022-08-23T13:09:53.200Z,32.00
2022-08-23T13:12:39.227Z,31.90
2022-08-23T13:15:36.733Z,32.50
2022-08-23T13:18:24.038Z,32.20
2022-08-23T13:21:28.948Z,32.30
2022-08-23T13:25:28.513Z,32.50
2022-08-23T13:29:01.311Z,32.50
2022-08-23T13:32:04.144Z,32.40
2022-08-23T13:34:41.023Z,32.20
2022-08-23T13:38:06.395Z,32.50
2022-08-23T13:40:55.645Z,31.90
2022-08-23T13:44:13.599Z,32.30
2022-08-23T13:46:47.532Z,32.40
2022-08-23T13:49:27.523Z,32.30
2022-08-23T13:52:41.665Z,32.80
2022-08-23T13:55:03.862Z,32.70
2022-08-23T13:57:47.406Z,32.90
2022-08-23T14:00:28.208Z,32.80
2022-08-23T14:03:12.884Z,32.70
2022-08-23T14:05:47.648Z,32.60
2022-08-23T14:08:36.084Z,32.80
2022-08-23T14:11:28.797Z,32.80
2022-08-23T14:16:44.483Z,32.70
2022-08-23T14:22:41.302Z,32.60
2022-08-23T14:25:10.770Z,32.50
2022-08-23T14:27:39.344Z,32.70
2022-08-23T14:30:26.218Z,32.50
2022-08-23T14:32:58.663Z,32.70
2022-08-23T14:35:31.424Z,32.80
2022-08-23T14:38:03.456Z,32.70
2022-08-23T14:40:32.726Z,32.70
2022-08-23T14:43:07.578Z,32.50
2022-08-23T14:45:39.653Z,32.70
2022-08-23T14:48:07.859Z,32.60
2022-08-23T14:53:40.639Z,32.70
2022-08-23T14:56:21.518Z,32.50
2022-08-23T14:59:06.395Z,32.70
2022-08-23T15:02:13.260Z,32.60
2022-08-23T15:05:01.849Z,32.60
2022-08-23T15:08:17.306Z,32.50
2022-08-23T15:14:21.370Z,32.40
2022-08-23T15:16:50.362Z,32.60
2022-08-23T15:19:21.045Z,32.70
2022-08-23T15:22:31.611Z,32.60
2022-08-23T15:25:24.314Z,32.50
2022-08-23T15:27:55.430Z,32.20
2022-08-23T15:30:24.962Z,32.50
2022-08-23T15:32:56.685Z,32.40
2022-08-23T15:36:14.510Z,32.30
2022-08-23T15:39:06.388Z,32.30
2022-08-23T15:42:31.244Z,32.50
2022-08-23T15:46:11.378Z,32.30
2022-08-23T15:49:24.586Z,32.50
2022-08-23T15:55:53.162Z,32.50
2022-08-23T15:58:28.104Z,32.40
2022-08-23T16:01:37.998Z,32.50
2022-08-23T16:04:35.978Z,32.20
2022-08-23T16:07:18.540Z,32.30
2022-08-23T16:10:28.308Z,32.30
2022-08-23T16:13:18.122Z,32.50
2022-08-23T16:16:06.916Z,32.40
2022-08-23T16:19:02.355Z,32.60
2022-08-23T16:21:36.403Z,32.60
2022-08-23T16:24:15.155Z,32.50
2022-08-23T16:26:53.322Z,32.30
2022-08-23T16:30:13.135Z,32.30
2022-08-23T16:32:43.626Z,32.30
2022-08-23T16:35:22.227Z,32.20
2022-08-23T16:38:03.413Z,32.20
2022-08-23T16:40:56.905Z,32.10
2022-08-23T16:43:44.585Z,32.00
2022-08-23T16:51:13.327Z,31.80
2022-08-23T16:54:40.776Z,31.70
2022-08-23T16:58:16.519Z,31.70
2022-08-23T17:01:02.085Z,31.50
2022-08-23T17:03:56.236Z,31.40
2022-08-23T17:11:03.588Z,31.30
2022-08-23T17:13:37.235Z,31.30
2022-08-23T17:16:09.169Z,31.30
2022-08-23T17:18:37.288Z,31.30
2022-08-23T17:21:05.646Z,31.20
2022-08-23T17:23:37.640Z,31.10
2022-08-23T17:26:10.835Z,31.10
2022-08-23T17:28:38.876Z,31.30
2022-08-23T17:31:09.837Z,31.10
2022-08-23T17:33:39.928Z,31.00
2022-08-23T17:36:10.618Z,31.10
2022-08-23T17:38:38.518Z,31.00
2022-08-23T17:41:06.603Z,30.90
2022-08-23T17:43:36.874Z,30.90
2022-08-23T17:46:04.777Z,30.80
2022-08-23T17:48:32.736Z,30.70
2022-08-23T17:51:04.412Z,30.70
2022-08-23T17:53:58.023Z,30.60
2022-08-23T17:56:28.488Z,30.50
2022-08-23T17:59:03.958Z,30.50
2022-08-23T18:01:37.709Z,30.60
2022-08-23T18:04:06.847Z,30.50
2022-08-23T18:06:39.001Z,30.50
2022-08-23T18:09:11.415Z,30.50
2022-08-23T18:11:39.682Z,30.50
2022-08-23T18:14:12.678Z,30.50
2022-08-23T18:16:40.904Z,30.50
2022-08-23T18:19:13.449Z,30.50
2022-08-23T18:21:50.043Z,30.50
2022-08-23T18:24:23.402Z,30.40
2022-08-23T18:27:09.099Z,30.30
2022-08-23T18:29:51.709Z,30.20
2022-08-23T18:32:23.166Z,30.10
2022-08-23T18:34:51.265Z,30.00
2022-08-23T18:37:21.670Z,29.90
2022-08-23T18:39:50.105Z,29.80
2022-08-23T18:42:18.367Z,29.60
2022-08-23T18:44:47.801Z,29.60
2022-08-23T18:47:15.869Z,29.60
2022-08-23T18:49:51.620Z,29.40
2022-08-23T18:56:10.187Z,29.40
2022-08-23T18:59:10.186Z,29.30
2022-08-23T19:01:45.567Z,29.30
2022-08-23T19:04:14.926Z,29.20
2022-08-23T19:06:44.968Z,29.20
2022-08-23T19:09:13.339Z,29.10
2022-08-23T19:11:42.950Z,29.00
2022-08-23T19:14:12.642Z,29.00
2022-08-23T19:16:47.215Z,28.90
2022-08-23T19:19:18.738Z,28.90
2022-08-23T19:21:46.725Z,28.80
2022-08-23T19:24:14.829Z,28.80
2022-08-23T19:26:47.315Z,28.60
2022-08-23T19:29:20.639Z,28.50
2022-08-23T19:31:48.977Z,28.50
2022-08-23T19:34:20.616Z,28.50
2022-08-23T19:37:00.241Z,28.40
2022-08-23T19:39:29.312Z,28.30
2022-08-23T19:41:57.571Z,28.20
2022-08-23T19:44:25.683Z,28.10
2022-08-23T19:46:55.768Z,28.10
2022-08-23T19:49:25.504Z,27.90
2022-08-23T19:51:54.002Z,27.90
2022-08-23T19:54:25.919Z,27.70
2022-08-23T19:56:58.057Z,27.60
2022-08-23T19:59:28.470Z,27.70
2022-08-23T20:01:58.072Z,27.70
2022-08-23T20:04:36.860Z,27.60
2022-08-23T20:07:06.288Z,27.70
2022-08-23T20:09:34.647Z,27.60
2022-08-23T20:12:03.217Z,27.50
2022-08-23T20:14:33.124Z,27.50
2022-08-23T20:17:03.522Z,27.40
2022-08-23T20:19:35.400Z,27.30
2022-08-23T20:22:18.339Z,27.20
2022-08-23T20:24:52.452Z,27.10
2022-08-23T20:27:24.186Z,27.10
2022-08-23T20:29:59.762Z,27.10
2022-08-23T20:32:27.878Z,27.00
2022-08-23T20:34:57.154Z,27.10
2022-08-23T20:37:28.341Z,27.00
2022-08-23T20:39:56.333Z,27.00
2022-08-23T20:42:24.717Z,26.90
2022-08-23T20:44:52.966Z,26.90
2022-08-23T20:47:21.242Z,26.90
2022-08-23T20:49:49.654Z,26.90
2022-08-23T20:52:18.969Z,26.80
2022-08-23T20:54:47.062Z,26.80
2022-08-23T20:57:15.195Z,26.70
2022-08-23T20:59:45.012Z,26.70
2022-08-23T21:02:13.473Z,26.70
2022-08-23T21:04:41.344Z,26.70
2022-08-23T21:07:09.354Z,26.70
2022-08-23T21:09:39.266Z,26.70
2022-08-23T21:12:07.551Z,26.70
2022-08-23T21:14:35.499Z,26.60
2022-08-23T21:17:03.375Z,26.60
2022-08-23T21:19:31.250Z,26.60
2022-08-23T21:21:59.398Z,26.60
2022-08-23T21:24:27.300Z,26.60
2022-08-23T21:26:56.488Z,26.50
2022-08-23T21:29:24.308Z,26.60
2022-08-23T21:31:52.269Z,26.50
2022-08-23T21:34:20.068Z,26.60
2022-08-23T21:36:47.940Z,26.60
2022-08-23T21:39:15.806Z,26.60
2022-08-23T21:41:45.900Z,26.60
2022-08-23T21:44:17.263Z,26.70
2022-08-23T21:46:45.329Z,26.70
2022-08-23T21:49:13.979Z,26.70
2022-08-23T21:51:42.371Z,26.70
2022-08-23T21:54:12.362Z,26.60
2022-08-23T21:56:40.280Z,26.50
2022-08-23T21:59:10.306Z,26.40
2022-08-23T22:01:39.822Z,26.40
2022-08-23T22:04:10.069Z,26.30
2022-08-23T22:06:39.454Z,26.20
2022-08-23T22:09:09.775Z,26.20
2022-08-23T22:11:40.496Z,26.20
2022-08-23T22:14:08.851Z,26.10
2022-08-23T22:16:37.341Z,26.00
2022-08-23T22:19:06.597Z,25.90
2022-08-23T22:21:35.544Z,25.80
2022-08-23T22:24:04.040Z,25.80
2022-08-23T22:26:32.476Z,25.80
2022-08-23T22:29:00.526Z,25.80
2022-08-23T22:31:28.599Z,25.80
2022-08-23T22:33:56.486Z,25.80
2022-08-23T22:36:26.948Z,25.80
2022-08-23T22:38:55.216Z,25.90
2022-08-23T22:41:27.187Z,25.80
2022-08-23T22:43:55.349Z,25.90
2022-08-23T22:46:24.494Z,25.90
2022-08-23T22:48:53.659Z,25.90
2022-08-23T22:51:23.395Z,25.80
2022-08-23T22:53:55.938Z,25.90
2022-08-23T22:56:25.458Z,25.80
2022-08-23T22:58:54.693Z,25.80
2022-08-23T23:01:25.989Z,25.80
2022-08-23T23:03:55.163Z,25.80
2022-08-23T23:06:23.073Z,25.70
2022-08-23T23:08:53.230Z,25.70
2022-08-23T23:11:22.664Z,25.60
2022-08-23T23:13:51.800Z,25.60
2022-08-23T23:16:22.828Z,25.60
2022-08-23T23:19:05.452Z,25.70
2022-08-23T23:21:34.769Z,25.60
2022-08-23T23:24:04.940Z,25.60
2022-08-23T23:26:32.794Z,25.40
2022-08-23T23:29:00.702Z,25.30
2022-08-23T23:31:29.090Z,25.50
2022-08-23T23:33:57.090Z,25.40
2022-08-23T23:36:24.913Z,25.40
2022-08-23T23:38:53.341Z,25.30
2022-08-23T23:41:22.488Z,25.30
2022-08-23T23:43:50.331Z,25.20
2022-08-23T23:46:20.485Z,25.20
2022-08-23T23:48:51.261Z,25.20
2022-08-23T23:51:21.732Z,25.10
2022-08-23T23:53:50.561Z,25.10
2022-08-23T23:56:18.882Z,25.20
2022-08-23T23:58:48.776Z,25.20
